sensor_id;sensor_type;location;lat;lon;timestamp;temperature;humidity
18948;DHT22;9607;51.600;7.558;2023-12-22T00:00:06;6.10;99.90
18948;DHT22;9607;51.600;7.558;2023-12-22T00:02:33;6.10;99.90
18948;DHT22;9607;51.600;7.558;2023-12-22T00:05:00;6.10;99.90
18948;DHT22;9607;51.600;7.558;2023-12-22T00:07:26;6.00;99.90
18948;DHT22;9607;51.600;7.558;2023-12-22T00:09:55;6.00;99.90
18948;DHT22;9607;51.600;7.558;2023-12-22T00:12:21;6.00;99.90
18948;DHT22;9607;51.600;7.558;2023-12-22T00:14:48;6.00;99.90
18948;DHT22;9607;51.600;7.558;2023-12-22T00:17:15;5.90;99.90
18948;DHT22;9607;51.600;7.558;2023-12-22T00:19:43;5.90;99.90
18948;DHT22;9607;51.600;7.558;2023-12-22T00:22:10;5.80;99.90
18948;DHT22;9607;51.600;7.558;2023-12-22T00:24:37;5.80;99.90
18948;DHT22;9607;51.600;7.558;2023-12-22T00:27:06;5.70;99.90
18948;DHT22;9607;51.600;7.558;2023-12-22T00:29:32;5.70;99.90
18948;DHT22;9607;51.600;7.558;2023-12-22T00:32:01;5.80;99.90
18948;DHT22;9607;51.600;7.558;2023-12-22T00:34:28;5.70;99.90
18948;DHT22;9607;51.600;7.558;2023-12-22T00:36:55;5.70;99.90
18948;DHT22;9607;51.600;7.558;2023-12-22T00:39:22;5.60;99.90
18948;DHT22;9607;51.600;7.558;2023-12-22T00:41:49;5.70;99.90
18948;DHT22;9607;51.600;7.558;2023-12-22T00:44:17;5.60;99.90
18948;DHT22;9607;51.600;7.558;2023-12-22T00:46:53;5.60;99.90
18948;DHT22;9607;51.600;7.558;2023-12-22T00:49:27;5.60;99.90
18948;DHT22;9607;51.600;7.558;2023-12-22T00:51:53;5.70;99.90
18948;DHT22;9607;51.600;7.558;2023-12-22T00:54:20;5.60;99.90
18948;DHT22;9607;51.600;7.558;2023-12-22T00:56:47;5.60;99.90
18948;DHT22;9607;51.600;7.558;2023-12-22T00:59:14;5.70;99.90
18948;DHT22;9607;51.600;7.558;2023-12-22T01:01:42;5.70;99.90
18948;DHT22;9607;51.600;7.558;2023-12-22T01:04:09;5.70;99.90
18948;DHT22;9607;51.600;7.558;2023-12-22T01:06:37;5.60;99.90
18948;DHT22;9607;51.600;7.558;2023-12-22T01:09:32;5.60;99.90
18948;DHT22;9607;51.600;7.558;2023-12-22T01:12:19;5.60;99.90
18948;DHT22;9607;51.600;7.558;2023-12-22T01:14:46;5.60;99.90
18948;DHT22;9607;51.600;7.558;2023-12-22T01:17:17;5.50;99.90
18948;DHT22;9607;51.600;7.558;2023-12-22T01:19:44;5.50;99.90
18948;DHT22;9607;51.600;7.558;2023-12-22T01:22:12;5.50;99.90
18948;DHT22;9607;51.600;7.558;2023-12-22T01:24:39;5.50;99.90
18948;DHT22;9607;51.600;7.558;2023-12-22T01:27:08;5.50;99.90
18948;DHT22;9607;51.600;7.558;2023-12-22T01:29:35;5.50;99.90
18948;DHT22;9607;51.600;7.558;2023-12-22T01:32:02;5.50;99.90
18948;DHT22;9607;51.600;7.558;2023-12-22T01:34:34;5.50;99.90
18948;DHT22;9607;51.600;7.558;2023-12-22T01:37:01;5.60;99.90
18948;DHT22;9607;51.600;7.558;2023-12-22T01:39:28;5.60;99.90
18948;DHT22;9607;51.600;7.558;2023-12-22T01:41:55;5.60;99.90
18948;DHT22;9607;51.600;7.558;2023-12-22T01:44:21;5.70;99.90
18948;DHT22;9607;51.600;7.558;2023-12-22T01:46:50;5.80;99.90
18948;DHT22;9607;51.600;7.558;2023-12-22T01:49:30;5.80;99.90
18948;DHT22;9607;51.600;7.558;2023-12-22T01:51:58;5.90;99.90
18948;DHT22;9607;51.600;7.558;2023-12-22T01:54:25;5.90;99.90
18948;DHT22;9607;51.600;7.558;2023-12-22T01:56:52;5.90;99.90
18948;DHT22;9607;51.600;7.558;2023-12-22T01:59:34;5.90;99.90
18948;DHT22;9607;51.600;7.558;2023-12-22T02:02:02;5.90;99.90
18948;DHT22;9607;51.600;7.558;2023-12-22T02:04:30;5.90;99.90
18948;DHT22;9607;51.600;7.558;2023-12-22T02:07:04;5.80;99.90
18948;DHT22;9607;51.600;7.558;2023-12-22T02:09:33;6.00;99.90
18948;DHT22;9607;51.600;7.558;2023-12-22T02:12:00;6.00;99.90
18948;DHT22;9607;51.600;7.558;2023-12-22T02:14:28;5.90;99.90
18948;DHT22;9607;51.600;7.558;2023-12-22T02:17:00;6.00;99.90
18948;DHT22;9607;51.600;7.558;2023-12-22T02:19:40;6.00;99.90
18948;DHT22;9607;51.600;7.558;2023-12-22T02:22:10;6.00;99.90
18948;DHT22;9607;51.600;7.558;2023-12-22T02:24:39;5.90;99.90
18948;DHT22;9607;51.600;7.558;2023-12-22T02:27:15;5.90;99.90
18948;DHT22;9607;51.600;7.558;2023-12-22T02:29:49;6.00;99.90
18948;DHT22;9607;51.600;7.558;2023-12-22T02:32:23;6.00;99.90
18948;DHT22;9607;51.600;7.558;2023-12-22T02:34:52;6.00;99.90
18948;DHT22;9607;51.600;7.558;2023-12-22T02:37:21;6.00;99.90
18948;DHT22;9607;51.600;7.558;2023-12-22T02:39:51;6.00;99.90
18948;DHT22;9607;51.600;7.558;2023-12-22T02:42:19;6.00;99.90
18948;DHT22;9607;51.600;7.558;2023-12-22T02:44:49;6.00;99.90
18948;DHT22;9607;51.600;7.558;2023-12-22T02:47:17;6.00;99.90
18948;DHT22;9607;51.600;7.558;2023-12-22T02:49:44;6.00;99.90
18948;DHT22;9607;51.600;7.558;2023-12-22T02:52:10;6.00;99.90
18948;DHT22;9607;51.600;7.558;2023-12-22T02:54:37;6.00;99.90
18948;DHT22;9607;51.600;7.558;2023-12-22T02:57:06;5.90;99.90
18948;DHT22;9607;51.600;7.558;2023-12-22T02:59:33;5.90;99.90
18948;DHT22;9607;51.600;7.558;2023-12-22T03:02:00;5.90;99.90
18948;DHT22;9607;51.600;7.558;2023-12-22T03:04:27;5.80;99.90
18948;DHT22;9607;51.600;7.558;2023-12-22T03:06:54;5.80;99.90
18948;DHT22;9607;51.600;7.558;2023-12-22T03:09:21;5.90;99.90
18948;DHT22;9607;51.600;7.558;2023-12-22T03:11:48;5.90;99.90
18948;DHT22;9607;51.600;7.558;2023-12-22T03:14:16;5.90;99.90
18948;DHT22;9607;51.600;7.558;2023-12-22T03:16:43;5.90;99.90
18948;DHT22;9607;51.600;7.558;2023-12-22T03:19:10;5.90;99.90
18948;DHT22;9607;51.600;7.558;2023-12-22T03:21:36;5.90;99.90
18948;DHT22;9607;51.600;7.558;2023-12-22T03:24:04;5.90;99.90
18948;DHT22;9607;51.600;7.558;2023-12-22T03:26:30;5.90;99.90
18948;DHT22;9607;51.600;7.558;2023-12-22T03:29:00;5.90;99.90
18948;DHT22;9607;51.600;7.558;2023-12-22T03:31:28;5.90;99.90
18948;DHT22;9607;51.600;7.558;2023-12-22T03:33:55;5.90;99.90
18948;DHT22;9607;51.600;7.558;2023-12-22T03:36:22;5.90;99.90
18948;DHT22;9607;51.600;7.558;2023-12-22T03:38:48;5.80;99.90
18948;DHT22;9607;51.600;7.558;2023-12-22T03:41:16;5.70;99.90
18948;DHT22;9607;51.600;7.558;2023-12-22T03:43:42;5.70;99.90
18948;DHT22;9607;51.600;7.558;2023-12-22T03:46:10;5.70;99.90
18948;DHT22;9607;51.600;7.558;2023-12-22T03:48:38;5.70;99.90
18948;DHT22;9607;51.600;7.558;2023-12-22T03:51:05;5.70;99.90
18948;DHT22;9607;51.600;7.558;2023-12-22T03:53:32;5.70;99.90
18948;DHT22;9607;51.600;7.558;2023-12-22T03:55:59;5.70;99.90
18948;DHT22;9607;51.600;7.558;2023-12-22T03:58:26;5.70;99.90
18948;DHT22;9607;51.600;7.558;2023-12-22T04:01:14;5.60;99.90
18948;DHT22;9607;51.600;7.558;2023-12-22T04:03:55;5.40;99.90
18948;DHT22;9607;51.600;7.558;2023-12-22T04:06:22;5.10;99.90
18948;DHT22;9607;51.600;7.558;2023-12-22T04:08:49;5.10;99.90
18948;DHT22;9607;51.600;7.558;2023-12-22T04:11:16;5.00;99.90
18948;DHT22;9607;51.600;7.558;2023-12-22T04:13:43;5.00;99.90
18948;DHT22;9607;51.600;7.558;2023-12-22T04:16:09;4.90;99.90
18948;DHT22;9607;51.600;7.558;2023-12-22T04:18:39;4.90;99.90
18948;DHT22;9607;51.600;7.558;2023-12-22T04:21:07;4.90;99.90
18948;DHT22;9607;51.600;7.558;2023-12-22T04:23:36;4.80;99.90
18948;DHT22;9607;51.600;7.558;2023-12-22T04:26:03;4.80;99.90
18948;DHT22;9607;51.600;7.558;2023-12-22T04:28:37;4.70;99.90
18948;DHT22;9607;51.600;7.558;2023-12-22T04:31:08;4.80;99.90
18948;DHT22;9607;51.600;7.558;2023-12-22T04:33:36;4.80;99.90
18948;DHT22;9607;51.600;7.558;2023-12-22T04:36:03;4.80;99.90
18948;DHT22;9607;51.600;7.558;2023-12-22T04:38:36;4.80;99.90
18948;DHT22;9607;51.600;7.558;2023-12-22T04:41:06;4.90;99.90
18948;DHT22;9607;51.600;7.558;2023-12-22T04:43:40;4.90;99.90
18948;DHT22;9607;51.600;7.558;2023-12-22T04:46:10;5.00;99.90
18948;DHT22;9607;51.600;7.558;2023-12-22T04:48:37;4.90;99.90
18948;DHT22;9607;51.600;7.558;2023-12-22T04:51:04;4.90;99.90
18948;DHT22;9607;51.600;7.558;2023-12-22T04:53:35;4.90;99.90
18948;DHT22;9607;51.600;7.558;2023-12-22T04:56:05;4.80;99.90
18948;DHT22;9607;51.600;7.558;2023-12-22T04:58:32;4.80;99.90
18948;DHT22;9607;51.600;7.558;2023-12-22T05:01:07;4.80;99.90
18948;DHT22;9607;51.600;7.558;2023-12-22T05:03:40;4.80;99.90
18948;DHT22;9607;51.600;7.558;2023-12-22T05:06:11;4.70;99.90
18948;DHT22;9607;51.600;7.558;2023-12-22T05:08:42;4.80;99.90
18948;DHT22;9607;51.600;7.558;2023-12-22T05:11:09;4.70;99.90
18948;DHT22;9607;51.600;7.558;2023-12-22T05:13:36;4.80;99.90
18948;DHT22;9607;51.600;7.558;2023-12-22T05:16:08;4.80;99.90
18948;DHT22;9607;51.600;7.558;2023-12-22T05:18:58;4.80;99.90
18948;DHT22;9607;51.600;7.558;2023-12-22T05:21:28;4.80;99.90
18948;DHT22;9607;51.600;7.558;2023-12-22T05:23:57;5.00;99.90
18948;DHT22;9607;51.600;7.558;2023-12-22T05:26:24;4.90;99.90
18948;DHT22;9607;51.600;7.558;2023-12-22T05:29:00;4.90;99.90
18948;DHT22;9607;51.600;7.558;2023-12-22T05:31:41;5.00;99.90
18948;DHT22;9607;51.600;7.558;2023-12-22T05:34:11;5.00;99.90
18948;DHT22;9607;51.600;7.558;2023-12-22T05:36:38;5.10;99.90
18948;DHT22;9607;51.600;7.558;2023-12-22T05:39:06;5.10;99.90
18948;DHT22;9607;51.600;7.558;2023-12-22T05:41:35;5.10;99.90
18948;DHT22;9607;51.600;7.558;2023-12-22T05:44:16;5.10;99.90
18948;DHT22;9607;51.600;7.558;2023-12-22T05:46:42;5.10;99.90
18948;DHT22;9607;51.600;7.558;2023-12-22T05:49:09;5.20;99.90
18948;DHT22;9607;51.600;7.558;2023-12-22T05:51:37;5.20;99.90
18948;DHT22;9607;51.600;7.558;2023-12-22T05:54:06;5.30;99.90
18948;DHT22;9607;51.600;7.558;2023-12-22T05:56:33;5.30;99.90
18948;DHT22;9607;51.600;7.558;2023-12-22T05:59:01;5.30;99.90
18948;DHT22;9607;51.600;7.558;2023-12-22T06:01:30;5.40;99.90
18948;DHT22;9607;51.600;7.558;2023-12-22T06:03:57;5.40;99.90
18948;DHT22;9607;51.600;7.558;2023-12-22T06:06:24;5.50;99.90
18948;DHT22;9607;51.600;7.558;2023-12-22T06:08:54;5.50;99.90
18948;DHT22;9607;51.600;7.558;2023-12-22T06:11:22;5.50;99.90
18948;DHT22;9607;51.600;7.558;2023-12-22T06:13:49;5.50;99.90
18948;DHT22;9607;51.600;7.558;2023-12-22T06:16:18;5.60;99.90
18948;DHT22;9607;51.600;7.558;2023-12-22T06:18:46;5.60;99.90
18948;DHT22;9607;51.600;7.558;2023-12-22T06:21:12;5.60;99.90
18948;DHT22;9607;51.600;7.558;2023-12-22T06:23:40;5.60;99.90
18948;DHT22;9607;51.600;7.558;2023-12-22T06:26:10;5.60;99.90
18948;DHT22;9607;51.600;7.558;2023-12-22T06:28:39;5.60;99.90
18948;DHT22;9607;51.600;7.558;2023-12-22T06:31:06;5.60;99.90
18948;DHT22;9607;51.600;7.558;2023-12-22T06:33:33;5.60;99.90
18948;DHT22;9607;51.600;7.558;2023-12-22T06:36:02;5.60;99.90
18948;DHT22;9607;51.600;7.558;2023-12-22T06:38:31;5.60;99.90
18948;DHT22;9607;51.600;7.558;2023-12-22T06:40:58;5.70;99.90
18948;DHT22;9607;51.600;7.558;2023-12-22T06:43:25;5.60;99.90
18948;DHT22;9607;51.600;7.558;2023-12-22T06:45:53;5.60;99.90
18948;DHT22;9607;51.600;7.558;2023-12-22T06:48:20;5.60;99.90
18948;DHT22;9607;51.600;7.558;2023-12-22T06:50:47;5.60;99.90
18948;DHT22;9607;51.600;7.558;2023-12-22T06:53:14;5.70;99.90
18948;DHT22;9607;51.600;7.558;2023-12-22T06:55:41;5.70;99.90
18948;DHT22;9607;51.600;7.558;2023-12-22T06:58:08;5.60;99.90
18948;DHT22;9607;51.600;7.558;2023-12-22T07:00:35;5.70;99.90
18948;DHT22;9607;51.600;7.558;2023-12-22T07:03:05;5.70;99.90
18948;DHT22;9607;51.600;7.558;2023-12-22T07:05:33;5.70;99.90
18948;DHT22;9607;51.600;7.558;2023-12-22T07:08:03;5.80;99.90
18948;DHT22;9607;51.600;7.558;2023-12-22T07:10:30;5.80;99.90
18948;DHT22;9607;51.600;7.558;2023-12-22T07:13:15;5.80;99.90
18948;DHT22;9607;51.600;7.558;2023-12-22T07:15:49;5.90;99.90
18948;DHT22;9607;51.600;7.558;2023-12-22T07:18:38;5.80;99.90
18948;DHT22;9607;51.600;7.558;2023-12-22T07:21:05;5.70;99.90
18948;DHT22;9607;51.600;7.558;2023-12-22T07:23:34;5.60;99.90
18948;DHT22;9607;51.600;7.558;2023-12-22T07:26:01;5.60;99.90
18948;DHT22;9607;51.600;7.558;2023-12-22T07:28:28;5.50;99.90
18948;DHT22;9607;51.600;7.558;2023-12-22T07:30:55;5.40;99.90
18948;DHT22;9607;51.600;7.558;2023-12-22T07:33:37;5.40;99.90
18948;DHT22;9607;51.600;7.558;2023-12-22T07:36:05;5.40;99.90
18948;DHT22;9607;51.600;7.558;2023-12-22T07:38:39;5.40;99.90
18948;DHT22;9607;51.600;7.558;2023-12-22T07:41:11;5.40;99.90
18948;DHT22;9607;51.600;7.558;2023-12-22T07:43:38;5.40;99.90
18948;DHT22;9607;51.600;7.558;2023-12-22T07:46:05;5.40;99.90
18948;DHT22;9607;51.600;7.558;2023-12-22T07:48:39;5.30;99.90
18948;DHT22;9607;51.600;7.558;2023-12-22T07:51:10;5.30;99.90
18948;DHT22;9607;51.600;7.558;2023-12-22T07:57:01;5.30;99.90
18948;DHT22;9607;51.600;7.558;2023-12-22T07:59:34;5.30;99.90
18948;DHT22;9607;51.600;7.558;2023-12-22T08:02:02;5.30;99.90
18948;DHT22;9607;51.600;7.558;2023-12-22T08:04:31;5.30;99.90
18948;DHT22;9607;51.600;7.558;2023-12-22T08:06:58;5.30;99.90
18948;DHT22;9607;51.600;7.558;2023-12-22T08:09:25;5.30;99.90
18948;DHT22;9607;51.600;7.558;2023-12-22T08:11:52;5.30;99.90
18948;DHT22;9607;51.600;7.558;2023-12-22T08:14:22;5.30;99.90
18948;DHT22;9607;51.600;7.558;2023-12-22T08:16:54;5.30;99.90
18948;DHT22;9607;51.600;7.558;2023-12-22T08:19:21;5.40;99.90
18948;DHT22;9607;51.600;7.558;2023-12-22T08:21:51;5.30;99.90
18948;DHT22;9607;51.600;7.558;2023-12-22T08:24:19;5.40;99.90
18948;DHT22;9607;51.600;7.558;2023-12-22T08:26:46;5.40;99.90
18948;DHT22;9607;51.600;7.558;2023-12-22T08:29:14;5.40;99.90
18948;DHT22;9607;51.600;7.558;2023-12-22T08:31:41;5.50;99.90
18948;DHT22;9607;51.600;7.558;2023-12-22T08:34:09;5.40;99.90
18948;DHT22;9607;51.600;7.558;2023-12-22T08:36:36;5.20;99.90
18948;DHT22;9607;51.600;7.558;2023-12-22T08:39:04;5.20;99.90
18948;DHT22;9607;51.600;7.558;2023-12-22T08:41:31;5.20;99.90
18948;DHT22;9607;51.600;7.558;2023-12-22T08:44:01;5.20;99.90
18948;DHT22;9607;51.600;7.558;2023-12-22T08:46:28;5.30;99.90
18948;DHT22;9607;51.600;7.558;2023-12-22T08:48:56;5.30;99.90
18948;DHT22;9607;51.600;7.558;2023-12-22T08:51:25;5.20;99.90
18948;DHT22;9607;51.600;7.558;2023-12-22T08:53:52;5.00;99.90
18948;DHT22;9607;51.600;7.558;2023-12-22T08:56:21;4.90;99.90
18948;DHT22;9607;51.600;7.558;2023-12-22T08:58:50;4.90;99.90
18948;DHT22;9607;51.600;7.558;2023-12-22T09:01:18;5.00;99.90
18948;DHT22;9607;51.600;7.558;2023-12-22T09:03:46;5.10;99.90
18948;DHT22;9607;51.600;7.558;2023-12-22T09:06:15;5.30;99.90
18948;DHT22;9607;51.600;7.558;2023-12-22T09:08:42;5.40;99.90
18948;DHT22;9607;51.600;7.558;2023-12-22T09:11:11;5.60;99.90
18948;DHT22;9607;51.600;7.558;2023-12-22T09:13:40;5.80;99.90
18948;DHT22;9607;51.600;7.558;2023-12-22T09:16:07;5.90;99.90
18948;DHT22;9607;51.600;7.558;2023-12-22T09:18:34;6.00;99.90
18948;DHT22;9607;51.600;7.558;2023-12-22T09:21:02;6.00;99.90
18948;DHT22;9607;51.600;7.558;2023-12-22T09:23:31;6.10;99.90
18948;DHT22;9607;51.600;7.558;2023-12-22T09:25:58;6.20;99.90
18948;DHT22;9607;51.600;7.558;2023-12-22T09:28:25;6.30;99.90
18948;DHT22;9607;51.600;7.558;2023-12-22T09:30:53;6.30;99.90
18948;DHT22;9607;51.600;7.558;2023-12-22T09:33:21;6.30;99.90
18948;DHT22;9607;51.600;7.558;2023-12-22T09:35:49;6.40;99.90
18948;DHT22;9607;51.600;7.558;2023-12-22T09:38:16;6.40;99.90
18948;DHT22;9607;51.600;7.558;2023-12-22T09:40:44;6.50;99.90
18948;DHT22;9607;51.600;7.558;2023-12-22T09:43:12;6.60;99.90
18948;DHT22;9607;51.600;7.558;2023-12-22T09:45:41;6.70;99.90
18948;DHT22;9607;51.600;7.558;2023-12-22T09:48:11;6.70;99.90
18948;DHT22;9607;51.600;7.558;2023-12-22T09:50:43;6.70;99.90
18948;DHT22;9607;51.600;7.558;2023-12-22T09:53:11;6.80;99.90
18948;DHT22;9607;51.600;7.558;2023-12-22T09:55:41;6.80;99.90
18948;DHT22;9607;51.600;7.558;2023-12-22T09:58:18;6.90;99.90
18948;DHT22;9607;51.600;7.558;2023-12-22T10:00:45;6.90;99.90
18948;DHT22;9607;51.600;7.558;2023-12-22T10:03:16;6.90;99.90
18948;DHT22;9607;51.600;7.558;2023-12-22T10:05:46;6.80;99.90
18948;DHT22;9607;51.600;7.558;2023-12-22T10:08:14;6.80;99.90
18948;DHT22;9607;51.600;7.558;2023-12-22T10:10:42;6.70;99.90
18948;DHT22;9607;51.600;7.558;2023-12-22T10:13:10;6.60;99.90
18948;DHT22;9607;51.600;7.558;2023-12-22T10:15:39;6.60;99.90
18948;DHT22;9607;51.600;7.558;2023-12-22T10:18:07;6.60;99.90
18948;DHT22;9607;51.600;7.558;2023-12-22T10:20:36;6.50;99.90
18948;DHT22;9607;51.600;7.558;2023-12-22T10:23:07;6.50;99.90
18948;DHT22;9607;51.600;7.558;2023-12-22T10:25:35;6.50;99.90
18948;DHT22;9607;51.600;7.558;2023-12-22T10:28:02;6.60;99.90
18948;DHT22;9607;51.600;7.558;2023-12-22T10:30:31;6.50;99.90
18948;DHT22;9607;51.600;7.558;2023-12-22T10:33:04;6.50;99.90
18948;DHT22;9607;51.600;7.558;2023-12-22T10:35:31;6.50;99.90
18948;DHT22;9607;51.600;7.558;2023-12-22T10:38:00;6.50;99.90
18948;DHT22;9607;51.600;7.558;2023-12-22T10:40:27;6.60;99.90
18948;DHT22;9607;51.600;7.558;2023-12-22T10:42:55;6.60;99.90
18948;DHT22;9607;51.600;7.558;2023-12-22T10:45:22;6.60;99.90
18948;DHT22;9607;51.600;7.558;2023-12-22T10:47:50;6.60;99.90
18948;DHT22;9607;51.600;7.558;2023-12-22T10:50:19;6.70;99.90
18948;DHT22;9607;51.600;7.558;2023-12-22T10:52:49;6.70;99.90
18948;DHT22;9607;51.600;7.558;2023-12-22T10:55:18;6.80;99.90
18948;DHT22;9607;51.600;7.558;2023-12-22T10:57:46;6.60;99.90
18948;DHT22;9607;51.600;7.558;2023-12-22T11:00:15;6.70;99.90
18948;DHT22;9607;51.600;7.558;2023-12-22T11:02:43;6.70;99.90
18948;DHT22;9607;51.600;7.558;2023-12-22T11:05:15;6.70;99.90
18948;DHT22;9607;51.600;7.558;2023-12-22T11:07:48;6.80;99.90
18948;DHT22;9607;51.600;7.558;2023-12-22T11:10:20;6.90;99.90
18948;DHT22;9607;51.600;7.558;2023-12-22T11:12:48;6.90;99.90
18948;DHT22;9607;51.600;7.558;2023-12-22T11:15:16;6.90;99.90
18948;DHT22;9607;51.600;7.558;2023-12-22T11:17:46;7.00;99.90
18948;DHT22;9607;51.600;7.558;2023-12-22T11:20:16;7.10;99.90
18948;DHT22;9607;51.600;7.558;2023-12-22T11:22:45;7.10;99.90
18948;DHT22;9607;51.600;7.558;2023-12-22T11:25:16;7.20;99.90
18948;DHT22;9607;51.600;7.558;2023-12-22T11:27:56;7.10;99.90
18948;DHT22;9607;51.600;7.558;2023-12-22T11:30:25;7.20;99.90
18948;DHT22;9607;51.600;7.558;2023-12-22T11:32:55;7.10;99.90
18948;DHT22;9607;51.600;7.558;2023-12-22T11:35:24;7.10;99.90
18948;DHT22;9607;51.600;7.558;2023-12-22T11:37:53;7.20;99.90
18948;DHT22;9607;51.600;7.558;2023-12-22T11:40:21;7.10;99.90
18948;DHT22;9607;51.600;7.558;2023-12-22T11:42:51;7.20;99.90
18948;DHT22;9607;51.600;7.558;2023-12-22T11:45:19;7.10;99.90
18948;DHT22;9607;51.600;7.558;2023-12-22T11:47:49;7.10;99.90
18948;DHT22;9607;51.600;7.558;2023-12-22T11:50:29;7.10;99.90
18948;DHT22;9607;51.600;7.558;2023-12-22T11:52:57;7.10;99.90
18948;DHT22;9607;51.600;7.558;2023-12-22T11:55:58;7.10;99.90
18948;DHT22;9607;51.600;7.558;2023-12-22T11:58:40;7.10;99.90
18948;DHT22;9607;51.600;7.558;2023-12-22T12:01:08;7.10;99.90
18948;DHT22;9607;51.600;7.558;2023-12-22T12:03:51;7.10;99.90
18948;DHT22;9607;51.600;7.558;2023-12-22T12:06:30;7.10;99.90
18948;DHT22;9607;51.600;7.558;2023-12-22T12:08:59;7.10;99.90
18948;DHT22;9607;51.600;7.558;2023-12-22T12:14:41;7.10;99.90
18948;DHT22;9607;51.600;7.558;2023-12-22T12:17:24;7.10;99.90
18948;DHT22;9607;51.600;7.558;2023-12-22T12:19:52;7.10;99.90
18948;DHT22;9607;51.600;7.558;2023-12-22T12:22:19;7.10;99.90
18948;DHT22;9607;51.600;7.558;2023-12-22T12:24:50;7.10;99.90
18948;DHT22;9607;51.600;7.558;2023-12-22T12:27:18;7.00;99.90
18948;DHT22;9607;51.600;7.558;2023-12-22T12:29:47;7.10;99.90
18948;DHT22;9607;51.600;7.558;2023-12-22T12:32:15;7.10;99.90
18948;DHT22;9607;51.600;7.558;2023-12-22T12:34:42;7.10;99.90
18948;DHT22;9607;51.600;7.558;2023-12-22T12:37:26;7.10;99.90
18948;DHT22;9607;51.600;7.558;2023-12-22T12:40:35;7.10;99.90
18948;DHT22;9607;51.600;7.558;2023-12-22T12:43:07;7.10;99.90
18948;DHT22;9607;51.600;7.558;2023-12-22T12:49:04;7.10;99.90
18948;DHT22;9607;51.600;7.558;2023-12-22T12:51:36;7.10;99.90
18948;DHT22;9607;51.600;7.558;2023-12-22T12:54:14;7.10;99.90
18948;DHT22;9607;51.600;7.558;2023-12-22T12:56:43;7.20;99.90
18948;DHT22;9607;51.600;7.558;2023-12-22T12:59:14;7.20;99.90
18948;DHT22;9607;51.600;7.558;2023-12-22T13:01:45;7.30;99.90
18948;DHT22;9607;51.600;7.558;2023-12-22T13:04:14;7.30;99.90
18948;DHT22;9607;51.600;7.558;2023-12-22T13:06:45;7.30;99.90
18948;DHT22;9607;51.600;7.558;2023-12-22T13:09:13;7.30;99.90
18948;DHT22;9607;51.600;7.558;2023-12-22T13:11:42;7.30;99.90
18948;DHT22;9607;51.600;7.558;2023-12-22T13:14:10;7.20;99.90
18948;DHT22;9607;51.600;7.558;2023-12-22T13:19:28;7.30;99.90
18948;DHT22;9607;51.600;7.558;2023-12-22T13:21:56;7.30;99.90
18948;DHT22;9607;51.600;7.558;2023-12-22T13:24:23;7.30;99.90
18948;DHT22;9607;51.600;7.558;2023-12-22T13:26:59;7.40;99.90
18948;DHT22;9607;51.600;7.558;2023-12-22T13:29:27;7.40;99.90
18948;DHT22;9607;51.600;7.558;2023-12-22T13:31:54;7.50;99.90
18948;DHT22;9607;51.600;7.558;2023-12-22T13:34:23;7.40;99.90
18948;DHT22;9607;51.600;7.558;2023-12-22T13:36:51;7.40;99.90
18948;DHT22;9607;51.600;7.558;2023-12-22T13:39:18;7.50;99.90
18948;DHT22;9607;51.600;7.558;2023-12-22T13:41:45;7.50;99.90
18948;DHT22;9607;51.600;7.558;2023-12-22T13:44:12;7.50;99.90
18948;DHT22;9607;51.600;7.558;2023-12-22T13:46:40;7.40;99.90
18948;DHT22;9607;51.600;7.558;2023-12-22T13:49:08;7.50;99.90
18948;DHT22;9607;51.600;7.558;2023-12-22T13:51:39;7.50;99.90
18948;DHT22;9607;51.600;7.558;2023-12-22T13:54:08;7.50;99.90
18948;DHT22;9607;51.600;7.558;2023-12-22T13:56:35;7.50;99.90
18948;DHT22;9607;51.600;7.558;2023-12-22T13:59:02;7.50;99.90
18948;DHT22;9607;51.600;7.558;2023-12-22T14:01:29;7.50;99.90
18948;DHT22;9607;51.600;7.558;2023-12-22T14:03:56;7.50;99.90
18948;DHT22;9607;51.600;7.558;2023-12-22T14:06:24;7.60;99.90
18948;DHT22;9607;51.600;7.558;2023-12-22T14:08:51;7.50;99.90
18948;DHT22;9607;51.600;7.558;2023-12-22T14:11:19;7.40;99.90
18948;DHT22;9607;51.600;7.558;2023-12-22T14:13:46;7.50;99.90
18948;DHT22;9607;51.600;7.558;2023-12-22T14:16:13;7.40;99.90
18948;DHT22;9607;51.600;7.558;2023-12-22T14:18:41;7.40;99.90
18948;DHT22;9607;51.600;7.558;2023-12-22T14:21:08;7.40;99.90
18948;DHT22;9607;51.600;7.558;2023-12-22T14:23:34;7.40;99.90
18948;DHT22;9607;51.600;7.558;2023-12-22T14:26:01;7.40;99.90
18948;DHT22;9607;51.600;7.558;2023-12-22T14:28:30;7.40;99.90
18948;DHT22;9607;51.600;7.558;2023-12-22T14:30:56;7.50;99.90
18948;DHT22;9607;51.600;7.558;2023-12-22T14:33:23;7.50;99.90
18948;DHT22;9607;51.600;7.558;2023-12-22T14:35:51;7.50;99.90
18948;DHT22;9607;51.600;7.558;2023-12-22T14:38:17;7.50;99.90
18948;DHT22;9607;51.600;7.558;2023-12-22T14:40:44;7.50;99.90
18948;DHT22;9607;51.600;7.558;2023-12-22T14:43:11;7.50;99.90
18948;DHT22;9607;51.600;7.558;2023-12-22T14:45:39;7.60;99.90
18948;DHT22;9607;51.600;7.558;2023-12-22T14:48:06;7.50;99.90
18948;DHT22;9607;51.600;7.558;2023-12-22T14:50:33;7.50;99.90
18948;DHT22;9607;51.600;7.558;2023-12-22T14:53:00;7.50;99.90
18948;DHT22;9607;51.600;7.558;2023-12-22T14:55:26;7.50;99.90
18948;DHT22;9607;51.600;7.558;2023-12-22T14:57:53;7.50;99.90
18948;DHT22;9607;51.600;7.558;2023-12-22T15:00:20;7.50;99.90
18948;DHT22;9607;51.600;7.558;2023-12-22T15:02:48;7.60;99.90
18948;DHT22;9607;51.600;7.558;2023-12-22T15:05:15;7.70;99.90
18948;DHT22;9607;51.600;7.558;2023-12-22T15:07:43;7.80;99.90
18948;DHT22;9607;51.600;7.558;2023-12-22T15:10:10;7.90;99.90
18948;DHT22;9607;51.600;7.558;2023-12-22T15:12:37;7.90;99.90
18948;DHT22;9607;51.600;7.558;2023-12-22T15:15:07;8.00;99.90
18948;DHT22;9607;51.600;7.558;2023-12-22T15:17:33;8.10;99.90
18948;DHT22;9607;51.600;7.558;2023-12-22T15:20:02;8.10;99.90
18948;DHT22;9607;51.600;7.558;2023-12-22T15:22:30;8.20;99.90
18948;DHT22;9607;51.600;7.558;2023-12-22T15:24:57;8.20;99.90
18948;DHT22;9607;51.600;7.558;2023-12-22T15:27:25;8.30;99.90
18948;DHT22;9607;51.600;7.558;2023-12-22T15:29:52;8.30;99.90
18948;DHT22;9607;51.600;7.558;2023-12-22T15:37:26;8.40;99.90
18948;DHT22;9607;51.600;7.558;2023-12-22T15:39:53;8.30;99.90
18948;DHT22;9607;51.600;7.558;2023-12-22T15:42:20;8.30;99.90
18948;DHT22;9607;51.600;7.558;2023-12-22T15:44:46;8.30;99.90
18948;DHT22;9607;51.600;7.558;2023-12-22T15:47:14;8.30;99.90
18948;DHT22;9607;51.600;7.558;2023-12-22T15:49:40;8.30;99.90
18948;DHT22;9607;51.600;7.558;2023-12-22T15:52:07;8.30;99.90
18948;DHT22;9607;51.600;7.558;2023-12-22T15:54:38;8.30;99.90
18948;DHT22;9607;51.600;7.558;2023-12-22T15:57:05;8.30;99.90
18948;DHT22;9607;51.600;7.558;2023-12-22T15:59:32;8.30;99.90
18948;DHT22;9607;51.600;7.558;2023-12-22T16:01:58;8.30;99.90
18948;DHT22;9607;51.600;7.558;2023-12-22T16:04:26;8.30;99.90
18948;DHT22;9607;51.600;7.558;2023-12-22T16:06:53;8.30;99.90
18948;DHT22;9607;51.600;7.558;2023-12-22T16:09:20;8.30;99.90
18948;DHT22;9607;51.600;7.558;2023-12-22T16:11:48;8.30;99.90
18948;DHT22;9607;51.600;7.558;2023-12-22T16:14:15;8.30;99.90
18948;DHT22;9607;51.600;7.558;2023-12-22T16:16:42;8.30;99.90
18948;DHT22;9607;51.600;7.558;2023-12-22T16:19:09;8.40;99.90
18948;DHT22;9607;51.600;7.558;2023-12-22T16:21:40;8.40;99.90
18948;DHT22;9607;51.600;7.558;2023-12-22T16:24:07;8.40;99.90
18948;DHT22;9607;51.600;7.558;2023-12-22T16:26:34;8.40;99.90
18948;DHT22;9607;51.600;7.558;2023-12-22T16:29:02;8.40;99.90
18948;DHT22;9607;51.600;7.558;2023-12-22T16:31:29;8.40;99.90